Time;durP1;ratioP1;P1;durP2;ratioP2;P2;SDS_P1;SDS_P2;PMS_P1;PMS_P2;Temp;Humidity;BMP_temperature;BMP_pressure;BME280_temperature;BME280_humidity;BME280_pressure;Samples;Min_cycle;Max_cycle;Signal;HPM_P1;HPM_P2
2022/07/05 00:01:10;;;;;;;5.18;1.42;;;;;;;25.77;40.61;99848.22;4146139;28;20283;-69
2022/07/05 00:03:13;;;;;;;3.20;1.70;;;;;;;25.66;41.31;99860.09;4144366;28;20241;-69
2022/07/05 00:05:15;;;;;;;3.10;1.67;;;;;;;25.47;41.21;99857.72;4144215;28;20244;-70
2022/07/05 00:07:18;;;;;;;4.05;1.65;;;;;;;25.90;40.61;99852.44;4135409;28;20229;-69
2022/07/05 00:09:19;;;;;;;1.88;1.33;;;;;;;24.94;42.23;99865.50;4129336;28;20284;-68
2022/07/05 00:11:21;;;;;;;4.78;1.70;;;;;;;25.30;41.91;99846.06;4128685;28;20233;-70
2022/07/05 00:13:23;;;;;;;3.65;1.63;;;;;;;24.52;43.39;99836.06;4128098;28;20288;-69
2022/07/05 00:15:24;;;;;;;2.83;1.63;;;;;;;24.80;42.85;99839.72;4128812;28;20234;-70
2022/07/05 00:17:26;;;;;;;2.75;1.83;;;;;;;25.07;42.08;99848.00;4129477;28;20230;-69
2022/07/05 00:19:28;;;;;;;3.63;1.70;;;;;;;25.56;41.16;99850.75;4127994;28;20296;-69
2022/07/05 00:21:30;;;;;;;1.77;1.60;;;;;;;25.55;40.66;99859.97;4129632;28;20241;-69
2022/07/05 00:23:31;;;;;;;2.72;1.75;;;;;;;24.68;42.25;99858.84;4128322;28;20288;-70
2022/07/05 00:25:33;;;;;;;2.70;1.60;;;;;;;24.84;41.62;99857.22;4128452;28;20296;-69
2022/07/05 00:27:35;;;;;;;1.75;1.50;;;;;;;25.19;40.72;99851.41;4128915;28;20257;-70
2022/07/05 00:29:36;;;;;;;1.98;1.40;;;;;;;25.55;39.91;99857.25;4128868;28;20234;-71
2022/07/05 00:31:38;;;;;;;2.15;1.30;;;;;;;25.24;40.29;99861.53;4127905;28;20233;-70
2022/07/05 00:33:39;;;;;;;3.45;1.40;;;;;;;25.54;39.67;99866.53;4128127;28;20308;-70
2022/07/05 00:35:41;;;;;;;2.83;1.42;;;;;;;25.52;39.56;99865.94;4126644;28;20254;-70
2022/07/05 00:37:43;;;;;;;3.60;1.52;;;;;;;25.40;39.68;99870.69;4127058;28;20273;-69
2022/07/05 00:39:45;;;;;;;3.53;1.70;;;;;;;25.32;39.27;99868.41;4129203;28;20238;-69
2022/07/05 00:41:47;;;;;;;3.67;1.55;;;;;;;25.54;38.72;99879.28;4128121;28;20238;-69
2022/07/05 00:43:58;;;;;;;3.13;1.50;;;;;;;25.13;39.72;99885.03;4128692;28;20230;-69
2022/07/05 00:45:59;;;;;;;2.75;1.40;;;;;;;25.33;38.77;99870.88;4126289;28;20241;-69
2022/07/05 00:48:01;;;;;;;3.10;1.40;;;;;;;25.10;39.44;99882.00;4128373;28;20237;-69
2022/07/05 00:50:03;;;;;;;2.70;1.38;;;;;;;25.18;39.13;99879.66;4137724;28;20245;-70
2022/07/05 00:52:05;;;;;;;3.08;1.30;;;;;;;25.23;38.97;99881.63;4128540;28;20841;-69
2022/07/05 00:54:22;;;;;;;1.85;1.20;;;;;;;25.56;38.61;99875.25;4127784;28;20233;-70
2022/07/05 00:56:25;;;;;;;1.85;1.40;;;;;;;25.24;38.83;99883.28;4127657;28;20242;-70
2022/07/05 00:58:28;;;;;;;2.60;1.40;;;;;;;25.57;38.29;99879.59;4128256;28;20229;-69
2022/07/05 01:00:30;;;;;;;2.25;1.60;;;;;;;25.27;38.34;99893.66;4128067;28;20237;-70
2022/07/05 01:02:31;;;;;;;4.28;1.45;;;;;;;25.92;37.17;99889.22;4127860;28;20233;-70
2022/07/05 01:04:33;;;;;;;2.20;1.38;;;;;;;26.16;36.84;99888.91;4128027;28;20280;-69
2022/07/05 01:06:35;;;;;;;2.42;1.40;;;;;;;25.54;37.67;99901.06;4125625;28;20241;-70
2022/07/05 01:08:42;;;;;;;3.30;1.40;;;;;;;25.42;37.80;99893.88;4127837;28;20248;-69
2022/07/05 01:10:44;;;;;;;2.22;1.42;;;;;;;24.74;39.28;99895.09;4127930;28;20242;-68
2022/07/05 01:12:46;;;;;;;5.40;1.85;;;;;;;25.24;38.83;99888.75;4127594;28;20325;-69
2022/07/05 01:14:48;;;;;;;5.60;1.60;;;;;;;25.47;38.34;99889.56;4127210;28;20323;-70
2022/07/05 01:16:52;;;;;;;2.20;1.52;;;;;;;25.60;37.93;99895.44;4127884;28;20288;-69
2022/07/05 01:18:54;;;;;;;2.05;1.40;;;;;;;25.41;38.38;99888.69;4127368;28;20377;-68
2022/07/05 01:20:56;;;;;;;1.65;1.25;;;;;;;24.04;41.45;99899.94;4134391;28;20241;-67
2022/07/05 01:23:00;;;;;;;2.22;1.40;;;;;;;23.80;41.26;99889.19;4127601;28;20325;-69
2022/07/05 01:25:02;;;;;;;2.47;1.50;;;;;;;24.02;41.07;99874.91;4127233;28;20301;-69
2022/07/05 01:27:05;;;;;;;2.05;1.40;;;;;;;23.71;41.90;99874.38;4127858;28;20257;-69
2022/07/05 01:29:08;;;;;;;2.78;1.70;;;;;;;23.64;42.34;99866.38;4130535;28;20234;-69
2022/07/05 01:31:10;;;;;;;2.85;1.20;;;;;;;24.17;41.07;99858.09;4127331;28;20281;-69
2022/07/05 01:33:12;;;;;;;1.80;1.30;;;;;;;24.62;39.78;99862.59;4127583;28;20296;-69
2022/07/05 01:35:20;;;;;;;3.80;1.55;;;;;;;25.02;38.89;99867.78;4126946;28;20238;-69
2022/07/05 01:37:22;;;;;;;1.63;1.30;;;;;;;24.86;38.70;99880.34;4126829;28;20235;-69
2022/07/05 01:39:24;;;;;;;3.25;1.42;;;;;;;25.11;39.31;99870.06;4127493;28;20238;-69
2022/07/05 01:41:26;;;;;;;3.28;1.30;;;;;;;25.16;38.82;99878.28;4127340;28;20229;-69
2022/07/05 01:43:27;;;;;;;2.45;1.40;;;;;;;25.46;37.91;99864.25;4127087;28;20233;-69
2022/07/05 01:45:44;;;;;;;1.73;1.40;;;;;;;24.94;39.36;99881.00;4125494;28;20582;-68
2022/07/05 01:47:48;;;;;;;2.65;1.40;;;;;;;23.98;41.09;99888.16;4126841;28;20234;-69
2022/07/05 01:49:53;;;;;;;3.58;1.50;;;;;;;23.79;41.10;99882.13;4127350;28;20321;-68
2022/07/05 01:51:59;;;;;;;1.58;1.48;;;;;;;23.28;42.16;99886.53;4141006;28;20260;-69
2022/07/05 01:54:01;;;;;;;3.40;1.55;;;;;;;22.56;43.31;99868.69;4140817;28;20641;-68
2022/07/05 01:56:03;;;;;;;3.72;1.40;;;;;;;23.01;42.44;99855.38;4126872;28;20249;-68
2022/07/05 01:58:06;;;;;;;4.05;1.40;;;;;;;23.30;41.57;99843.69;4126892;28;20234;-69
2022/07/05 02:00:09;;;;;;;1.40;1.30;;;;;;;23.75;40.88;99848.38;4127777;28;20226;-69
2022/07/05 02:02:10;;;;;;;3.42;1.27;;;;;;;23.81;40.59;99841.16;4138209;28;20233;-69
2022/07/05 02:04:12;;;;;;;2.17;1.58;;;;;;;23.56;41.17;99858.63;4142706;28;20241;-68
2022/07/05 02:06:14;;;;;;;3.70;1.17;;;;;;;23.80;40.71;99853.09;4140664;28;20249;-69
2022/07/05 02:08:17;;;;;;;3.67;1.20;;;;;;;23.85;40.50;99856.69;4127628;28;20805;-68
2022/07/05 02:10:19;;;;;;;5.10;1.50;;;;;;;24.10;39.68;99855.50;4126764;28;20292;-69
2022/07/05 02:12:20;;;;;;;2.72;1.55;;;;;;;24.49;39.52;99856.41;4126597;28;20267;-69
2022/07/05 02:14:23;;;;;;;2.33;1.27;;;;;;;25.14;38.88;99850.50;4127031;28;20237;-69
2022/07/05 02:16:26;;;;;;;2.75;1.63;;;;;;;25.08;38.26;99867.84;4124968;28;20277;-69
2022/07/05 02:18:28;;;;;;;3.35;1.60;;;;;;;25.34;37.72;99874.41;4128974;28;20670;-69
2022/07/05 02:20:31;;;;;;;1.70;1.30;;;;;;;24.45;39.42;99868.84;4114704;28;20863;-68
2022/07/05 02:22:33;;;;;;;2.45;1.30;;;;;;;24.03;40.81;99880.09;4126803;28;20742;-68
2022/07/05 02:24:35;;;;;;;2.28;1.40;;;;;;;23.78;40.37;99880.47;4126751;28;20250;-67
2022/07/05 02:26:39;;;;;;;4.78;1.38;;;;;;;23.46;41.11;99872.78;4126164;28;20871;-68
2022/07/05 02:28:41;;;;;;;0.98;0.90;;;;;;;23.68;40.83;99864.00;4127555;28;20685;-69
2022/07/05 02:30:43;;;;;;;3.60;1.48;;;;;;;23.68;40.79;99875.69;4125687;28;20234;-68
2022/07/05 02:32:46;;;;;;;1.67;1.40;;;;;;;23.15;42.79;99874.09;4141925;28;20250;-69
2022/07/05 02:34:47;;;;;;;2.90;1.45;;;;;;;23.31;42.71;99856.22;4142262;28;20249;-69
2022/07/05 02:36:49;;;;;;;3.88;1.50;;;;;;;23.52;42.93;99860.16;4143447;28;20272;-68
2022/07/05 02:38:51;;;;;;;1.50;1.40;;;;;;;23.31;44.07;99864.34;4142353;28;20309;-68
2022/07/05 02:40:52;;;;;;;2.15;1.95;;;;;;;23.72;43.01;99859.72;4143390;28;20244;-68
2022/07/05 02:42:54;;;;;;;1.60;1.50;;;;;;;23.12;44.06;99861.81;4143321;28;20311;-68
2022/07/05 02:44:56;;;;;;;1.98;1.48;;;;;;;22.89;44.44;99859.13;4141718;28;20383;-69
2022/07/05 02:46:57;;;;;;;1.67;1.55;;;;;;;22.67;45.23;99854.31;4141642;28;20241;-68
2022/07/05 02:48:59;;;;;;;2.30;1.50;;;;;;;23.35;43.81;99849.22;4129076;28;20292;-67
2022/07/05 02:51:02;;;;;;;1.42;1.27;;;;;;;24.34;42.18;99855.38;4133352;28;20237;-69
2022/07/05 02:53:04;;;;;;;1.42;1.33;;;;;;;24.74;41.34;99860.56;4126758;28;20257;-69
2022/07/05 02:55:06;;;;;;;2.23;1.60;;;;;;;23.81;42.55;99874.56;4125089;28;20280;-68
2022/07/05 02:57:08;;;;;;;3.97;2.33;;;;;;;23.42;44.01;99879.78;4128904;28;20237;-69
2022/07/05 02:59:09;;;;;;;1.40;1.30;;;;;;;23.37;44.30;99868.81;4128357;28;20678;-69
2022/07/05 03:01:11;;;;;;;3.03;1.67;;;;;;;22.59;45.55;99865.50;4126202;28;20234;-68
2022/07/05 03:03:14;;;;;;;2.20;1.43;;;;;;;23.33;43.56;99844.06;4126486;28;20341;-68
2022/07/05 03:05:16;;;;;;;4.03;1.73;;;;;;;23.80;42.44;99843.03;4125888;28;20242;-68
2022/07/05 03:07:17;;;;;;;1.77;1.40;;;;;;;24.26;41.72;99843.84;4122604;28;20289;-68
2022/07/05 03:09:19;;;;;;;3.70;1.30;;;;;;;24.56;40.71;99867.09;4126797;28;20226;-71
2022/07/05 03:11:21;;;;;;;1.60;1.50;;;;;;;23.70;42.55;99881.69;4126990;28;20229;-67
2022/07/05 03:13:22;;;;;;;2.93;1.70;;;;;;;22.72;44.21;99880.69;4125950;28;20822;-68
2022/07/05 03:15:24;;;;;;;1.60;1.50;;;;;;;22.73;44.20;99885.88;4125433;28;20244;-68
2022/07/05 03:17:26;;;;;;;2.17;1.70;;;;;;;22.72;44.87;99867.97;4126054;28;20237;-68
2022/07/05 03:19:28;;;;;;;3.60;1.90;;;;;;;22.35;45.57;99873.63;4126007;28;20238;-68
2022/07/05 03:21:29;;;;;;;4.13;1.87;;;;;;;22.30;45.99;99865.38;4123618;28;20237;-68
2022/07/05 03:23:31;;;;;;;2.13;1.50;;;;;;;22.33;46.06;99864.09;4125259;28;20226;-68
2022/07/05 03:25:33;;;;;;;2.15;1.60;;;;;;;22.86;44.83;99855.00;4125639;28;20778;-67
2022/07/05 03:27:35;;;;;;;1.60;1.50;;;;;;;23.66;42.91;99866.97;4127229;28;20234;-68
2022/07/05 03:29:37;;;;;;;3.53;1.80;;;;;;;23.61;43.25;99866.06;4127161;28;20241;-68
2022/07/05 03:31:38;;;;;;;2.27;1.80;;;;;;;23.07;43.90;99891.53;4126039;28;20242;-67
2022/07/05 03:33:40;;;;;;;1.87;1.60;;;;;;;22.98;44.42;99890.28;4125948;28;20233;-71
2022/07/05 03:35:42;;;;;;;1.87;1.77;;;;;;;22.65;45.39;99872.69;4124971;28;20599;-68
2022/07/05 03:37:43;;;;;;;2.83;1.93;;;;;;;22.02;46.32;99877.66;4118955;28;20238;-68
2022/07/05 03:39:45;;;;;;;2.57;1.50;;;;;;;21.76;46.87;99872.63;4126077;28;20233;-68
2022/07/05 03:41:47;;;;;;;1.60;1.50;;;;;;;22.61;45.30;99860.69;4125434;28;20230;-68
2022/07/05 03:43:49;;;;;;;2.70;1.47;;;;;;;22.06;46.35;99873.41;4125884;28;20288;-68
2022/07/05 03:45:51;;;;;;;2.40;1.60;;;;;;;22.96;45.02;99865.25;4125898;28;20238;-68
2022/07/05 03:47:56;;;;;;;2.87;1.97;;;;;;;22.69;45.84;99881.97;4125895;28;20833;-68
2022/07/05 03:50:00;;;;;;;2.30;2.07;;;;;;;23.13;45.44;99877.03;4112342;28;20237;-68
2022/07/05 03:52:01;;;;;;;1.87;1.50;;;;;;;23.58;43.53;99886.34;4116171;28;20399;-69
2022/07/05 03:54:03;;;;;;;2.60;1.80;;;;;;;23.05;44.31;99904.50;4124535;28;20321;-71
2022/07/05 03:56:05;;;;;;;3.17;1.70;;;;;;;23.71;44.19;99896.09;4125669;28;20242;-67
2022/07/05 03:58:07;;;;;;;1.87;1.77;;;;;;;22.70;45.54;99918.88;4126376;28;20637;-68
2022/07/05 04:00:09;;;;;;;2.53;1.77;;;;;;;23.19;44.76;99907.78;4125129;28;20898;-69
2022/07/05 04:02:11;;;;;;;4.30;1.87;;;;;;;23.30;43.78;99922.38;4124844;28;20990;-67
2022/07/05 04:04:13;;;;;;;2.50;1.70;;;;;;;22.95;44.22;99924.09;4125575;28;20234;-68
2022/07/05 04:06:14;;;;;;;4.53;1.90;;;;;;;22.49;44.81;99933.00;4123536;28;20292;-68
2022/07/05 04:08:16;;;;;;;3.90;1.97;;;;;;;22.68;44.03;99923.72;4126490;28;20244;-68
2022/07/05 04:10:19;;;;;;;5.00;2.00;;;;;;;22.63;44.78;99927.13;4129104;28;20236;-68
2022/07/05 04:12:21;;;;;;;2.80;2.07;;;;;;;22.58;44.79;99942.44;4138493;28;20706;-68
2022/07/05 04:14:22;;;;;;;3.20;2.00;;;;;;;23.25;43.26;99943.97;4128568;28;20295;-68
2022/07/05 04:16:25;;;;;;;4.00;2.17;;;;;;;22.79;44.49;99941.03;4127477;28;20241;-68
2022/07/05 04:18:27;;;;;;;3.10;2.10;;;;;;;22.43;45.33;99957.25;4129364;28;20229;-68
2022/07/05 04:20:29;;;;;;;2.20;2.00;;;;;;;22.19;45.93;99952.81;4126534;28;20230;-68
2022/07/05 04:22:31;;;;;;;2.70;1.87;;;;;;;22.59;45.45;99934.09;4156066;28;20283;-68
2022/07/05 04:25:16;;;;;;;2.30;2.00;;;;;;;22.85;44.90;99945.53;4112354;28;20241;-67
2022/07/05 04:26:54;;;;;;;2.10;1.80;;;;;;;22.68;44.24;99960.84;4113084;28;20301;-67
2022/07/05 04:28:56;;;;;;;3.60;2.57;;;;;;;22.96;43.96;99963.72;4112369;28;20249;-67
2022/07/05 04:30:58;;;;;;;5.30;2.07;;;;;;;23.33;43.45;99974.28;4112596;28;20274;-68
2022/07/05 04:33:00;;;;;;;4.33;2.50;;;;;;;23.38;43.64;99965.41;4109872;28;20248;-67
2022/07/05 04:35:02;;;;;;;5.20;2.20;;;;;;;22.91;44.40;99971.69;4111787;28;20322;-69
2022/07/05 04:37:03;;;;;;;6.93;2.63;;;;;;;23.06;44.75;99956.84;4121850;28;20714;-69
2022/07/05 04:39:05;;;;;;;4.83;2.50;;;;;;;23.48;44.34;99960.19;4128210;28;20284;-68
2022/07/05 04:41:07;;;;;;;7.13;2.93;;;;;;;23.55;43.54;99968.22;4129142;28;20293;-68
2022/07/05 04:43:09;;;;;;;10.83;2.53;;;;;;;23.00;44.38;99977.63;4128008;28;20234;-67
2022/07/05 04:45:10;;;;;;;7.97;2.40;;;;;;;23.34;43.72;99966.97;4127175;28;20226;-68
2022/07/05 04:47:12;;;;;;;3.53;2.47;;;;;;;23.66;43.10;99974.72;4128888;28;20261;-68
2022/07/05 04:49:14;;;;;;;6.47;2.70;;;;;;;23.64;43.20;99985.00;4128146;28;20231;-68
2022/07/05 04:51:15;;;;;;;6.00;2.90;;;;;;;22.97;45.48;99994.34;4129122;28;20229;-68
2022/07/05 04:53:17;;;;;;;3.07;2.30;;;;;;;23.29;44.62;99975.00;4144276;28;20649;-68
2022/07/05 04:55:19;;;;;;;6.13;2.63;;;;;;;23.45;44.09;99977.00;4143336;28;20323;-69
2022/07/05 04:57:20;;;;;;;7.30;2.17;;;;;;;23.23;44.07;99987.59;4143548;28;20221;-71
2022/07/05 04:59:22;;;;;;;6.40;2.50;;;;;;;22.39;46.50;99977.75;4145093;28;20653;-71
2022/07/05 05:01:27;;;;;;;4.17;2.87;;;;;;;23.11;45.41;99970.53;4144652;28;20241;-71
2022/07/05 05:03:29;;;;;;;4.10;2.60;;;;;;;23.23;45.21;99975.94;4129413;28;20234;-70
2022/07/05 05:05:30;;;;;;;4.50;2.37;;;;;;;23.43;45.00;99970.13;4125929;28;20261;-68
2022/07/05 05:07:32;;;;;;;4.00;2.47;;;;;;;23.66;44.75;99980.97;4117135;28;20621;-70
2022/07/05 05:09:38;;;;;;;5.43;2.57;;;;;;;24.05;43.46;99985.78;4112544;28;20708;-70
2022/07/05 05:11:39;;;;;;;6.37;2.83;;;;;;;24.17;43.46;99981.16;4112108;28;20576;-67
2022/07/05 05:13:45;;;;;;;2.80;2.23;;;;;;;23.61;44.53;99988.19;4110644;28;20293;-69
2022/07/05 05:15:46;;;;;;;4.23;2.30;;;;;;;23.89;43.82;99981.94;4110026;28;20317;-69
2022/07/05 05:17:48;;;;;;;3.00;2.58;;;;;;;24.23;43.58;99991.03;4112383;28;20675;-68
2022/07/05 05:19:50;;;;;;;3.10;2.50;;;;;;;23.75;45.05;99986.84;4110300;28;20301;-68
2022/07/05 05:21:51;;;;;;;3.90;2.30;;;;;;;24.18;44.04;99996.38;4124548;28;20230;-69
2022/07/05 05:23:53;;;;;;;4.47;2.30;;;;;;;24.27;44.29;99988.66;4127481;28;20233;-68
2022/07/05 05:25:55;;;;;;;6.80;2.27;;;;;;;24.75;43.33;99989.19;4113078;28;20231;-68
2022/07/05 05:27:57;;;;;;;2.47;2.20;;;;;;;24.59;43.85;99994.38;4127560;28;20265;-68
2022/07/05 05:29:59;;;;;;;3.60;2.40;;;;;;;24.39;43.88;99994.03;4112542;28;20238;-68
2022/07/05 05:32:01;;;;;;;5.57;2.30;;;;;;;24.65;43.42;100004.28;4110998;28;20242;-69
2022/07/05 05:34:03;;;;;;;5.82;2.22;;;;;;;24.77;43.30;100001.50;4111954;28;20242;-69
2022/07/05 05:36:05;;;;;;;2.92;2.10;;;;;;;24.88;43.25;100001.66;4111078;28;20234;-69
2022/07/05 05:38:06;;;;;;;4.65;2.30;;;;;;;25.12;42.81;100005.00;4110574;28;20676;-69
2022/07/05 05:40:09;;;;;;;5.47;2.25;;;;;;;24.91;43.40;100015.59;4111727;28;20248;-69
2022/07/05 05:42:10;;;;;;;2.83;2.07;;;;;;;24.73;43.46;100021.25;4110466;28;20266;-69
2022/07/05 05:44:12;;;;;;;2.10;1.90;;;;;;;24.66;43.39;100015.97;4111598;28;20309;-69
2022/07/05 05:46:13;;;;;;;3.35;2.00;;;;;;;24.34;44.25;100005.63;4111023;28;20242;-67
2022/07/05 05:48:15;;;;;;;1.95;1.75;;;;;;;25.02;42.79;100006.50;4123952;28;20742;-68
2022/07/05 05:50:30;;;;;;;3.85;1.83;;;;;;;24.97;43.17;100016.47;4120461;28;20294;-69
2022/07/05 05:52:31;;;;;;;2.63;2.15;;;;;;;25.15;42.54;100015.38;4127568;28;20732;-69
2022/07/05 05:54:33;;;;;;;2.83;2.25;;;;;;;25.31;41.53;100030.88;4126938;28;20230;-69
2022/07/05 05:56:35;;;;;;;2.95;2.05;;;;;;;24.97;42.24;100022.75;4127349;28;21718;-69
2022/07/05 05:58:36;;;;;;;4.47;2.13;;;;;;;24.18;42.71;100029.00;4127408;28;20237;-68
2022/07/05 06:00:47;;;;;;;1.58;1.45;;;;;;;25.26;40.32;100016.38;4126917;28;20249;-69
2022/07/05 06:02:50;;;;;;;2.30;1.95;;;;;;;24.35;41.89;100030.94;4126816;28;20249;-69
2022/07/05 06:04:52;;;;;;;5.32;1.92;;;;;;;25.13;40.19;100031.97;4134830;28;20332;-68
2022/07/05 06:06:54;;;;;;;4.15;1.70;;;;;;;25.50;39.64;100036.88;4136069;28;20242;-69
2022/07/05 06:08:56;;;;;;;4.88;2.05;;;;;;;25.82;38.77;100040.81;4127266;28;20242;-69
2022/07/05 06:10:57;;;;;;;3.28;1.85;;;;;;;25.12;40.00;100045.81;4127512;28;20301;-69
2022/07/05 06:13:10;;;;;;;8.73;2.20;;;;;;;24.85;40.61;100041.88;4126691;28;20232;-68
2022/07/05 06:15:10;;;;;;;5.93;1.90;;;;;;;25.46;39.72;100048.50;4126646;28;20601;-68
2022/07/05 06:17:12;;;;;;;4.93;1.85;;;;;;;25.50;39.74;100047.75;4126702;28;20229;-69
2022/07/05 06:19:14;;;;;;;3.40;1.95;;;;;;;25.12;40.80;100045.81;4127707;28;20226;-69
2022/07/05 06:21:15;;;;;;;2.95;1.70;;;;;;;25.47;39.33;100045.53;4127641;28;20614;-69
2022/07/05 06:23:17;;;;;;;2.05;1.85;;;;;;;25.97;38.53;100046.47;4125804;28;20769;-68
2022/07/05 06:25:20;;;;;;;4.28;1.75;;;;;;;25.71;38.74;100050.75;4126505;28;20245;-68
2022/07/05 06:27:24;;;;;;;3.97;1.75;;;;;;;25.46;39.24;100054.78;4127177;28;20292;-69
2022/07/05 06:29:32;;;;;;;3.55;1.70;;;;;;;25.89;37.90;100057.78;4126216;28;20237;-69
2022/07/05 06:31:34;;;;;;;3.25;1.90;;;;;;;26.13;37.36;100056.47;4126693;28;20238;-69
2022/07/05 06:33:35;;;;;;;3.95;1.80;;;;;;;25.67;40.04;100058.59;4126006;28;20240;-68
2022/07/05 06:35:37;;;;;;;3.60;2.17;;;;;;;26.02;38.39;100059.34;4125530;28;20991;-69
2022/07/05 06:38:07;;;;;;;2.55;1.60;;;;;;;25.64;39.39;100052.84;4126444;28;20245;-68
2022/07/05 06:40:10;;;;;;;3.22;1.67;;;;;;;24.86;41.98;100048.13;4123600;28;20230;-68
2022/07/05 06:42:18;;;;;;;4.40;1.65;;;;;;;25.90;36.56;100043.91;4126711;28;20308;-68
2022/07/05 06:44:19;;;;;;;1.65;1.55;;;;;;;25.62;37.71;100052.28;4125750;28;20621;-68
2022/07/05 06:46:37;;;;;;;5.57;1.60;;;;;;;25.63;37.88;100059.34;4141363;28;20744;-69
2022/07/05 06:48:44;;;;;;;4.07;1.50;;;;;;;25.93;38.66;100054.31;4135330;28;20261;-71
2022/07/05 06:50:54;;;;;;;4.00;1.60;;;;;;;25.67;38.33;100050.44;4121739;28;20245;-71
2022/07/05 06:52:55;;;;;;;3.05;1.60;;;;;;;25.26;37.90;100052.56;4125659;28;20269;-72
2022/07/05 06:55:00;;;;;;;3.20;2.00;;;;;;;25.69;38.34;100053.72;4126070;28;20245;-71
2022/07/05 06:57:02;;;;;;;3.72;1.23;;;;;;;25.30;38.70;100056.44;4126353;28;20246;-73
2022/07/05 06:59:24;;;;;;;1.58;1.48;;;;;;;23.56;40.18;100049.41;4126537;28;20253;-71
2022/07/05 07:01:46;;;;;;;3.05;1.40;;;;;;;25.52;37.87;100033.91;4126216;28;20261;-73
2022/07/05 07:03:47;;;;;;;3.03;1.42;;;;;;;25.89;37.66;100044.97;4125995;28;20233;-72
2022/07/05 07:06:09;;;;;;;2.85;1.58;;;;;;;25.94;36.72;100052.44;4125353;28;20230;-72
2022/07/05 07:10:31;;;;;;;2.42;1.60;;;;;;;25.43;37.73;100068.91;4125730;28;20255;-72
2022/07/05 07:12:33;;;;;;;3.13;1.50;;;;;;;26.28;36.68;100057.72;4126293;28;20233;-73
2022/07/05 07:14:34;;;;;;;1.63;1.50;;;;;;;25.77;36.90;100071.53;4126081;28;20294;-72
2022/07/05 07:16:36;;;;;;;2.78;1.40;;;;;;;26.40;36.00;100066.56;4129234;28;20241;-72
2022/07/05 07:18:38;;;;;;;2.28;1.65;;;;;;;26.05;36.69;100069.72;4134325;28;20252;-74
2022/07/05 07:20:59;;;;;;;1.65;1.40;;;;;;;26.49;36.21;100070.47;4138189;28;20272;-72
2022/07/05 07:23:01;;;;;;;3.28;1.50;;;;;;;25.75;36.72;100071.78;4126389;28;20296;-73
2022/07/05 07:25:05;;;;;;;2.28;1.60;;;;;;;25.46;36.93;100073.84;4125121;28;20237;-72
2022/07/05 07:27:07;;;;;;;5.47;1.45;;;;;;;24.85;37.46;100071.78;4125689;28;20300;-72
2022/07/05 07:29:09;;;;;;;2.83;1.80;;;;;;;25.96;36.88;100063.88;4127160;28;20238;-73
2022/07/05 07:31:11;;;;;;;2.70;1.70;;;;;;;25.78;36.48;100065.03;4127005;28;20237;-72
2022/07/05 07:33:12;;;;;;;1.63;1.52;;;;;;;25.23;37.72;100070.19;4125728;28;20815;-71
2022/07/05 07:35:34;;;;;;;3.33;1.70;;;;;;;25.20;37.90;100078.03;4125737;28;20265;-72
2022/07/05 07:37:36;;;;;;;3.00;1.50;;;;;;;26.18;36.53;100057.59;4126037;28;20284;-73
2022/07/05 07:39:38;;;;;;;3.70;1.60;;;;;;;25.87;37.53;100066.22;4126482;28;20269;-72
2022/07/05 07:41:40;;;;;;;4.20;1.88;;;;;;;25.33;37.67;100068.72;4126110;28;20229;-72
2022/07/05 07:43:42;;;;;;;2.05;1.58;;;;;;;24.80;37.97;100079.03;4125925;28;20234;-72
2022/07/05 07:45:44;;;;;;;2.03;1.70;;;;;;;26.12;37.81;100065.72;4128690;28;20230;-73
2022/07/05 07:47:45;;;;;;;2.70;1.70;;;;;;;25.70;37.72;100065.47;4129796;28;20735;-71
2022/07/05 07:49:47;;;;;;;2.33;1.50;;;;;;;25.68;38.84;100065.72;4129242;28;20233;-72
2022/07/05 07:51:50;;;;;;;4.20;1.67;;;;;;;26.04;38.23;100047.09;4135276;28;20613;-72
2022/07/05 07:53:52;;;;;;;2.95;1.65;;;;;;;26.00;39.24;100048.69;4128278;28;20756;-72
2022/07/05 07:55:53;;;;;;;3.35;1.38;;;;;;;26.16;37.29;100061.41;4127713;28;20296;-72
2022/07/05 07:57:55;;;;;;;4.03;1.90;;;;;;;26.22;37.55;100059.56;4116192;28;20231;-72
2022/07/05 07:59:56;;;;;;;2.50;1.40;;;;;;;25.93;37.42;100067.94;4129561;28;20295;-73
2022/07/05 08:01:58;;;;;;;2.65;1.40;;;;;;;26.11;37.23;100069.50;4111805;28;20302;-72
2022/07/05 08:04:00;;;;;;;5.80;1.48;;;;;;;25.72;38.24;100055.94;4113557;28;20235;-72
2022/07/05 08:06:02;;;;;;;2.53;1.50;;;;;;;26.22;37.20;100061.44;4112121;28;20242;-73
2022/07/05 08:08:04;;;;;;;3.17;1.58;;;;;;;26.26;38.14;100065.34;4114242;28;20238;-72
2022/07/05 08:10:06;;;;;;;4.65;1.70;;;;;;;26.84;37.16;100071.94;4128989;28;20241;-72
2022/07/05 08:12:08;;;;;;;3.50;1.50;;;;;;;26.63;37.13;100070.09;4128421;28;20323;-72
2022/07/05 08:14:10;;;;;;;4.95;1.70;;;;;;;26.02;39.07;100071.06;4128993;28;20300;-72
2022/07/05 08:16:11;;;;;;;2.63;1.60;;;;;;;26.53;37.93;100047.09;4128359;28;20230;-73
2022/07/05 08:22:53;;;;;;;3.17;1.60;;;;;;;25.82;38.37;100059.88;4128297;28;20245;-72
2022/07/05 08:24:55;;;;;;;5.07;1.38;;;;;;;26.02;37.79;100057.44;4127709;28;20251;-73
2022/07/05 08:26:57;;;;;;;3.80;1.55;;;;;;;26.85;37.49;100056.38;4129654;28;20300;-72
2022/07/05 08:29:01;;;;;;;2.15;1.60;;;;;;;25.75;38.25;100063.63;4128238;28;20316;-72
2022/07/05 08:31:11;;;;;;;2.90;1.70;;;;;;;26.06;37.89;100055.84;4128578;28;20288;-73
2022/07/05 08:33:13;;;;;;;4.55;1.65;;;;;;;27.03;36.72;100039.59;4128139;28;20236;-71
2022/07/05 08:35:14;;;;;;;1.55;1.40;;;;;;;27.18;36.94;100060.75;4128048;28;20677;-73
2022/07/05 08:37:16;;;;;;;3.35;1.60;;;;;;;26.34;38.31;100054.78;4128462;28;20291;-72
2022/07/05 08:39:18;;;;;;;2.38;1.50;;;;;;;26.92;37.24;100056.97;4128679;28;20498;-73
2022/07/05 08:41:21;;;;;;;2.70;1.60;;;;;;;27.34;36.92;100058.09;4128524;28;20281;-72
2022/07/05 08:43:23;;;;;;;2.85;1.73;;;;;;;27.51;37.40;100056.00;4127802;28;21030;-72
2022/07/05 08:45:27;;;;;;;2.38;1.42;;;;;;;27.21;37.73;100060.22;4127759;28;20260;-72
2022/07/05 08:47:29;;;;;;;4.18;1.88;;;;;;;27.70;36.42;100056.44;4127194;28;20238;-72
2022/07/05 08:49:33;;;;;;;3.88;1.33;;;;;;;27.42;36.93;100066.63;4134994;28;20237;-72
2022/07/05 08:51:38;;;;;;;5.38;1.52;;;;;;;27.35;37.10;100059.75;4130793;28;20261;-72
2022/07/05 08:53:41;;;;;;;3.75;1.40;;;;;;;27.88;37.02;100052.38;4127593;28;20233;-73
2022/07/05 08:55:43;;;;;;;2.88;1.45;;;;;;;27.57;36.80;100071.34;4119907;28;20777;-73
2022/07/05 08:57:45;;;;;;;2.35;1.30;;;;;;;27.45;36.90;100063.38;4128628;28;20292;-73
2022/07/05 08:59:46;;;;;;;3.65;1.55;;;;;;;26.81;37.84;100063.44;4127384;28;20233;-74
2022/07/05 09:01:49;;;;;;;1.85;1.40;;;;;;;27.45;36.72;100046.16;4127439;28;20773;-73
2022/07/05 09:03:52;;;;;;;1.35;1.25;;;;;;;27.68;35.72;100060.50;4128046;28;20238;-72
2022/07/05 09:05:56;;;;;;;3.95;2.13;;;;;;;27.77;35.95;100048.81;4126980;28;20246;-72
2022/07/05 09:08:02;;;;;;;3.47;1.73;;;;;;;27.24;36.89;100062.41;4127772;28;20234;-72
2022/07/05 09:10:04;;;;;;;2.15;1.63;;;;;;;27.90;36.02;100061.13;4128063;28;20261;-72
2022/07/05 09:12:06;;;;;;;1.40;1.30;;;;;;;28.03;36.17;100065.28;4127372;28;20234;-72
2022/07/05 09:14:28;;;;;;;3.25;1.45;;;;;;;28.00;36.80;100053.00;4128190;28;20254;-71
2022/07/05 09:16:32;;;;;;;3.30;1.77;;;;;;;27.74;37.86;100056.72;4126694;28;20321;-72
2022/07/05 09:18:48;;;;;;;1.58;1.45;;;;;;;27.69;37.79;100059.44;4128813;28;20741;-72
2022/07/05 09:20:49;;;;;;;2.70;1.40;;;;;;;28.11;37.61;100044.81;4125787;28;20245;-72
2022/07/05 09:22:54;;;;;;;2.33;1.30;;;;;;;28.16;36.91;100045.69;4126310;28;20245;-72
2022/07/05 09:24:56;;;;;;;2.67;1.45;;;;;;;28.52;36.13;100064.06;4126658;28;20244;-71
2022/07/05 09:27:04;;;;;;;4.63;1.55;;;;;;;28.49;36.19;100067.34;4127343;28;20250;-72
2022/07/05 09:29:11;;;;;;;1.95;1.30;;;;;;;28.67;35.37;100074.19;4126825;28;20264;-71
2022/07/05 09:31:41;;;;;;;6.25;1.52;;;;;;;28.95;35.01;100081.09;4127994;28;20715;-72
2022/07/05 09:33:50;;;;;;;2.42;1.27;;;;;;;29.07;34.36;100084.34;4127338;28;20245;-74
2022/07/05 09:35:59;;;;;;;1.35;1.23;;;;;;;28.77;35.89;100076.97;4129452;28;20292;-72
2022/07/05 09:38:03;;;;;;;1.65;1.45;;;;;;;28.67;35.29;100076.94;4141279;28;20231;-72
2022/07/05 09:40:06;;;;;;;3.47;1.30;;;;;;;28.57;35.17;100074.19;4140877;28;20283;-72
2022/07/05 09:42:20;;;;;;;2.13;1.40;;;;;;;28.18;36.22;100079.03;4142284;28;20322;-73
2022/07/05 09:44:26;;;;;;;4.07;1.50;;;;;;;28.19;36.15;100068.91;4129778;28;20252;-73